Hopkins, Missouri
Current Conditions -  °F | °C
As of 7:15 PM on Friday 19 Dec 2014 (Local Time) from KICL Reporting Station
Overcast Overcast  
Wind Chill: 25°   Ceiling: 1000
Heat Index: 30°   Visibility: 7mi
Dew Point: 28°   Wind: 5mph
Humidity: 93%   Direction: 220°SW
Pressure: 30.22"   Gusts: NA
Location:  40.55°N, 94.82°W
Report Text: KICL 200115Z AUTO 22004KT 7SM OVC010 M01/M02 A3022 RMK AO2
Loading
Personal Weather Stations






























Interactive Weather Map New forecast layout! Learn more

10-Day Weather Forecast

Advertisements
Track Severe Weather on mobile